Courageous — WBC5659 — position and weather

sailwx.info

Track history (hours):
 
Tides and Currents Weather Stations Pressure Air Temp Water Temp Dewpoint Dewpoint Depression Visibility Wind Speed Wind Dir Waves Ship Positions

Courageous

Last reported at 2014-Nov-10 09:33 UTC. Time now 2014-Nov-20 21:01 UTC.
Position N 50°59' W 127°47'.
Warning: this ship's position is 10 days out of date.

Length 54 m; draft 6 m.

Type: Ship (hazmat cat B). MMSI: 368499000.

Date/timePositionNaut miles runAvg speedWind from/ knotsBaromVisibWave heightAir tempDewpointWater temp
2014-Nov-10 09:33N 50°59' W 127°47'9 8.8
2014-Nov-10 08:33N 50°53' W 127°37'9 9.3
2014-Nov-10 07:33N 50°49' W 127°24'1110.4
2014-Nov-10 06:29N 50°44' W 127°08'112 9.4
2014-Nov-09 18:30N 49°40' W 124°45'1010.4
2014-Nov-09 17:33N 49°33' W 124°34'1211.2
2014-Nov-09 16:31N 49°25' W 124°20'1111.0
2014-Nov-09 15:32N 49°22' W 124°04'1111.2
2014-Nov-09 14:31N 49°18' W 123°48'1111.0
2014-Nov-09 13:33N 49°13' W 123°34'1211.7
2014-Nov-09 12:33N 49°05' W 123°21'1211.9
2014-Nov-09 11:33N 48°56' W 123°08'1211.5
2014-Nov-09 10:33N 48°49' W 122°55'1110.9
2014-Nov-09 09:33N 48°42' W 122°43'1010.2
2014-Nov-09 08:33N 48°31' W 122°44'10 9.2
2014-Nov-09 07:29N 48°21' W 122°45'10 9.7
2014-Nov-09 06:25N 48°11' W 122°47'1213.7
2014-Nov-09 05:33N 48°01' W 122°37'1212.2
2014-Nov-09 04:33N 47°51' W 122°27'1010.4
2014-Nov-09 03:33N 47°41' W 122°25'1 1.3
2014-Nov-09 02:33N 47°40' W 122°24'0 0.0
2014-Nov-09 01:33N 47°40' W 122°24'0 0.0
2014-Nov-09 01:33N 47°40' W 122°24'0 0.0
2014-Nov-09 00:33N 47°40' W 122°24'0 0.3
2014-Nov-09 00:32N 47°40' W 122°24'0 0.0
2014-Nov-08 23:33N 47°40' W 122°24'0 0.0
2014-Nov-08 22:33N 47°40' W 122°24'0 0.0
2014-Nov-08 21:33N 47°40' W 122°24'0 0.0
2014-Nov-08 20:33N 47°40' W 122°24'0 0.0
2014-Nov-08 20:32N 47°40' W 122°24'0 0.0
2014-Nov-08 19:33N 47°40' W 122°24'0 0.0
2014-Nov-08 18:33N 47°40' W 122°24'0 0.0
2014-Nov-08 17:33N 47°40' W 122°24'0 0.0
2014-Nov-08 16:33N 47°40' W 122°24'0 0.0
2014-Nov-08 15:33N 47°40' W 122°24'0 0.0
2014-Nov-08 14:33N 47°40' W 122°24'0 0.0
2014-Nov-08 13:33N 47°40' W 122°24'0 0.0
2014-Nov-08 12:33N 47°40' W 122°24'0 0.0
2014-Nov-08 12:31N 47°40' W 122°24'0 0.0
2014-Nov-08 11:33N 47°40' W 122°24'0 0.1
2014-Nov-08 11:31N 47°40' W 122°24'0 0.0
2014-Nov-08 10:33N 47°40' W 122°24'0 0.0
2014-Nov-08 10:31N 47°40' W 122°24'0 0.0
2014-Nov-08 09:33N 47°40' W 122°24'0 0.0
2014-Nov-08 08:33N 47°40' W 122°24'0 0.0
2014-Nov-08 08:31N 47°40' W 122°24'0 0.0
2014-Nov-08 07:33N 47°40' W 122°24'0 0.0
2014-Nov-08 06:33N 47°40' W 122°24'0 0.0
2014-Nov-08 05:33N 47°40' W 122°24'0 0.0
2014-Nov-08 05:30N 47°40' W 122°24'0 0.0
2014-Nov-08 04:32N 47°40' W 122°24'0 0.0
2014-Nov-08 04:30N 47°40' W 122°24'0 0.0
2014-Nov-08 03:33N 47°40' W 122°24'0 0.0
2014-Nov-08 03:30N 47°40' W 122°24'0 0.0
2014-Nov-08 02:33N 47°40' W 122°24'0 0.0
2014-Nov-08 01:33N 47°40' W 122°24'0 0.0
2014-Nov-08 00:33N 47°40' W 122°24'0 0.0
2014-Nov-08 00:30N 47°40' W 122°24'0 0.3
2014-Nov-07 23:33N 47°40' W 122°23'0 0.1
2014-Nov-07 23:30N 47°40' W 122°23'0 0.0
2014-Nov-07 22:33N 47°40' W 122°23'0 0.0
2014-Nov-07 21:33N 47°40' W 122°23'0 0.0
2014-Nov-07 20:33N 47°40' W 122°23'0 0.0
2014-Nov-07 19:33N 47°40' W 122°23'0 0.0
2014-Nov-07 18:33N 47°40' W 122°23'0 0.0
2014-Nov-07 17:32N 47°40' W 122°23'0 0.0
2014-Nov-07 16:33N 47°40' W 122°23'0 0.0
2014-Nov-07 15:33N 47°40' W 122°23'0 0.3
2014-Nov-07 14:33N 47°40' W 122°24'0 0.0
2014-Nov-07 13:33N 47°40' W 122°24'0 0.0
2014-Nov-07 12:33N 47°40' W 122°24'0 0.0
2014-Nov-07 11:33N 47°40' W 122°24'0 0.0
2014-Nov-07 10:33N 47°40' W 122°24'0 0.0
2014-Nov-07 09:33N 47°40' W 122°24'0 0.0
2014-Nov-07 08:33N 47°40' W 122°24'0 0.0
2014-Nov-07 07:33N 47°40' W 122°24'0 0.0
2014-Nov-07 06:33N 47°40' W 122°24'0 0.0
2014-Nov-07 05:33N 47°40' W 122°24'0 0.0
2014-Nov-07 04:33N 47°40' W 122°24'0 0.0
2014-Nov-07 03:33N 47°40' W 122°24'0 0.0
2014-Nov-07 02:33N 47°40' W 122°24'0 0.0
2014-Nov-07 01:33N 47°40' W 122°24'0 0.0
2014-Nov-07 00:33N 47°40' W 122°24'0 0.0
2014-Nov-06 23:33N 47°40' W 122°24'0 0.0
2014-Nov-06 22:33N 47°40' W 122°24'0 0.0
2014-Nov-06 21:33N 47°40' W 122°24'0 0.0
2014-Nov-06 20:33N 47°40' W 122°24'0 0.0
2014-Nov-06 19:33N 47°40' W 122°24'0 0.0
2014-Nov-06 18:33N 47°40' W 122°24'0 0.0
2014-Nov-06 17:33N 47°40' W 122°24'0 0.0
2014-Nov-06 16:33N 47°40' W 122°24'0 0.0
2014-Nov-06 15:33N 47°40' W 122°24'0 0.0
2014-Nov-06 14:33N 47°40' W 122°24'0 0.0
2014-Nov-06 13:34N 47°40' W 122°24'0 0.0
2014-Nov-06 12:33N 47°40' W 122°24'0 0.0
2014-Nov-06 11:33N 47°40' W 122°24'0 0.0
2014-Nov-06 10:33N 47°40' W 122°24'0 0.0
2014-Nov-06 09:33N 47°40' W 122°24'0 0.0
2014-Nov-06 08:33N 47°40' W 122°24'0 0.0
2014-Nov-06 07:33N 47°40' W 122°24'0 0.0
2014-Nov-06 06:33N 47°40' W 122°24'0 0.0
2014-Nov-06 05:34N 47°40' W 122°24'0 0.0
2014-Nov-06 04:33N 47°40' W 122°24'0 0.0
2014-Nov-06 03:33N 47°40' W 122°24'0 0.0
2014-Nov-06 02:33N 47°40' W 122°24'0 0.0
2014-Nov-06 01:33N 47°40' W 122°24'0 0.0
2014-Nov-06 00:33N 47°40' W 122°24'0 0.0
2014-Nov-05 23:33N 47°40' W 122°24'0 0.0
2014-Nov-05 22:33N 47°40' W 122°24'0 0.0
2014-Nov-05 21:34N 47°40' W 122°24'0 0.0
2014-Nov-05 20:34N 47°40' W 122°24'0 0.0
2014-Nov-05 20:32N 47°40' W 122°24'  
2014-Oct-31 19:09N 47°40' W 122°24'0 0.0
2014-Oct-31 19:09N 47°40' W 122°24'0 0.0
2014-Oct-31 18:33N 47°40' W 122°24'0 0.1
2014-Oct-31 18:29N 47°40' W 122°24'0 0.0
2014-Oct-31 17:04N 47°40' W 122°24'0 0.0
2014-Oct-31 16:33N 47°40' W 122°24'  
Track history (hours):
 
Tides and Currents Weather Stations Pressure Air Temp Water Temp Dewpoint Dewpoint Depression Visibility Wind Speed Wind Dir Waves Ship Positions

Courageous

Last reported at 2014-Nov-10 09:33 UTC. Time now 2014-Nov-20 21:01 UTC.
Position N 50°59' W 127°47'.
Warning: this ship's position is 10 days out of date.

Length 54 m; draft 6 m.

Type: Ship (hazmat cat B). MMSI: 368499000.

Date/timePositionNaut miles runAvg speedWind from/ knotsBaromVisibWave heightAir tempDewpointWater temp
2014-Nov-10 09:33N 50°59' W 127°47'9 8.8
2014-Nov-10 08:33N 50°53' W 127°37'9 9.3
2014-Nov-10 07:33N 50°49' W 127°24'1110.4
2014-Nov-10 06:29N 50°44' W 127°08'112 9.4
2014-Nov-09 18:30N 49°40' W 124°45'1010.4
2014-Nov-09 17:33N 49°33' W 124°34'1211.2
2014-Nov-09 16:31N 49°25' W 124°20'1111.0
2014-Nov-09 15:32N 49°22' W 124°04'1111.2
2014-Nov-09 14:31N 49°18' W 123°48'1111.0
2014-Nov-09 13:33N 49°13' W 123°34'1211.7
2014-Nov-09 12:33N 49°05' W 123°21'1211.9
2014-Nov-09 11:33N 48°56' W 123°08'1211.5
2014-Nov-09 10:33N 48°49' W 122°55'1110.9
2014-Nov-09 09:33N 48°42' W 122°43'1010.2
2014-Nov-09 08:33N 48°31' W 122°44'10 9.2
2014-Nov-09 07:29N 48°21' W 122°45'10 9.7
2014-Nov-09 06:25N 48°11' W 122°47'1213.7
2014-Nov-09 05:33N 48°01' W 122°37'1212.2
2014-Nov-09 04:33N 47°51' W 122°27'1010.4
2014-Nov-09 03:33N 47°41' W 122°25'1 1.3
2014-Nov-09 02:33N 47°40' W 122°24'0 0.0
2014-Nov-09 01:33N 47°40' W 122°24'0 0.0
2014-Nov-09 01:33N 47°40' W 122°24'0 0.0
2014-Nov-09 00:33N 47°40' W 122°24'0 0.3
2014-Nov-09 00:32N 47°40' W 122°24'0 0.0
2014-Nov-08 23:33N 47°40' W 122°24'0 0.0
2014-Nov-08 22:33N 47°40' W 122°24'0 0.0
2014-Nov-08 21:33N 47°40' W 122°24'0 0.0
2014-Nov-08 20:33N 47°40' W 122°24'0 0.0
2014-Nov-08 20:32N 47°40' W 122°24'0 0.0
2014-Nov-08 19:33N 47°40' W 122°24'0 0.0
2014-Nov-08 18:33N 47°40' W 122°24'0 0.0
2014-Nov-08 17:33N 47°40' W 122°24'0 0.0
2014-Nov-08 16:33N 47°40' W 122°24'0 0.0
2014-Nov-08 15:33N 47°40' W 122°24'0 0.0
2014-Nov-08 14:33N 47°40' W 122°24'0 0.0
2014-Nov-08 13:33N 47°40' W 122°24'0 0.0
2014-Nov-08 12:33N 47°40' W 122°24'0 0.0
2014-Nov-08 12:31N 47°40' W 122°24'0 0.0
2014-Nov-08 11:33N 47°40' W 122°24'0 0.1
2014-Nov-08 11:31N 47°40' W 122°24'0 0.0
2014-Nov-08 10:33N 47°40' W 122°24'0 0.0
2014-Nov-08 10:31N 47°40' W 122°24'0 0.0
2014-Nov-08 09:33N 47°40' W 122°24'0 0.0
2014-Nov-08 08:33N 47°40' W 122°24'0 0.0
2014-Nov-08 08:31N 47°40' W 122°24'0 0.0
2014-Nov-08 07:33N 47°40' W 122°24'0 0.0
2014-Nov-08 06:33N 47°40' W 122°24'0 0.0
2014-Nov-08 05:33N 47°40' W 122°24'0 0.0
2014-Nov-08 05:30N 47°40' W 122°24'0 0.0
2014-Nov-08 04:32N 47°40' W 122°24'0 0.0
2014-Nov-08 04:30N 47°40' W 122°24'0 0.0
2014-Nov-08 03:33N 47°40' W 122°24'0 0.0
2014-Nov-08 03:30N 47°40' W 122°24'0 0.0
2014-Nov-08 02:33N 47°40' W 122°24'0 0.0
2014-Nov-08 01:33N 47°40' W 122°24'0 0.0
2014-Nov-08 00:33N 47°40' W 122°24'0 0.0
2014-Nov-08 00:30N 47°40' W 122°24'0 0.3
2014-Nov-07 23:33N 47°40' W 122°23'0 0.1
2014-Nov-07 23:30N 47°40' W 122°23'0 0.0
2014-Nov-07 22:33N 47°40' W 122°23'0 0.0
2014-Nov-07 21:33N 47°40' W 122°23'0 0.0
2014-Nov-07 20:33N 47°40' W 122°23'0 0.0
2014-Nov-07 19:33N 47°40' W 122°23'0 0.0
2014-Nov-07 18:33N 47°40' W 122°23'0 0.0
2014-Nov-07 17:32N 47°40' W 122°23'0 0.0
2014-Nov-07 16:33N 47°40' W 122°23'0 0.0
2014-Nov-07 15:33N 47°40' W 122°23'0 0.3
2014-Nov-07 14:33N 47°40' W 122°24'0 0.0
2014-Nov-07 13:33N 47°40' W 122°24'0 0.0
2014-Nov-07 12:33N 47°40' W 122°24'0 0.0
2014-Nov-07 11:33N 47°40' W 122°24'0 0.0
2014-Nov-07 10:33N 47°40' W 122°24'0 0.0
2014-Nov-07 09:33N 47°40' W 122°24'0 0.0
2014-Nov-07 08:33N 47°40' W 122°24'0 0.0
2014-Nov-07 07:33N 47°40' W 122°24'0 0.0
2014-Nov-07 06:33N 47°40' W 122°24'0 0.0
2014-Nov-07 05:33N 47°40' W 122°24'0 0.0
2014-Nov-07 04:33N 47°40' W 122°24'0 0.0
2014-Nov-07 03:33N 47°40' W 122°24'0 0.0
2014-Nov-07 02:33N 47°40' W 122°24'0 0.0
2014-Nov-07 01:33N 47°40' W 122°24'0 0.0
2014-Nov-07 00:33N 47°40' W 122°24'0 0.0
2014-Nov-06 23:33N 47°40' W 122°24'0 0.0
2014-Nov-06 22:33N 47°40' W 122°24'0 0.0
2014-Nov-06 21:33N 47°40' W 122°24'0 0.0
2014-Nov-06 20:33N 47°40' W 122°24'0 0.0
2014-Nov-06 19:33N 47°40' W 122°24'0 0.0
2014-Nov-06 18:33N 47°40' W 122°24'0 0.0
2014-Nov-06 17:33N 47°40' W 122°24'0 0.0
2014-Nov-06 16:33N 47°40' W 122°24'0 0.0
2014-Nov-06 15:33N 47°40' W 122°24'0 0.0
2014-Nov-06 14:33N 47°40' W 122°24'0 0.0
2014-Nov-06 13:34N 47°40' W 122°24'0 0.0
2014-Nov-06 12:33N 47°40' W 122°24'0 0.0
2014-Nov-06 11:33N 47°40' W 122°24'0 0.0
2014-Nov-06 10:33N 47°40' W 122°24'0 0.0
2014-Nov-06 09:33N 47°40' W 122°24'0 0.0
2014-Nov-06 08:33N 47°40' W 122°24'0 0.0
2014-Nov-06 07:33N 47°40' W 122°24'0 0.0
2014-Nov-06 06:33N 47°40' W 122°24'0 0.0
2014-Nov-06 05:34N 47°40' W 122°24'0 0.0
2014-Nov-06 04:33N 47°40' W 122°24'0 0.0
2014-Nov-06 03:33N 47°40' W 122°24'0 0.0
2014-Nov-06 02:33N 47°40' W 122°24'0 0.0
2014-Nov-06 01:33N 47°40' W 122°24'0 0.0
2014-Nov-06 00:33N 47°40' W 122°24'0 0.0
2014-Nov-05 23:33N 47°40' W 122°24'0 0.0
2014-Nov-05 22:33N 47°40' W 122°24'0 0.0
2014-Nov-05 21:34N 47°40' W 122°24'0 0.0
2014-Nov-05 20:34N 47°40' W 122°24'0 0.0
2014-Nov-05 20:32N 47°40' W 122°24'  
2014-Oct-31 19:09N 47°40' W 122°24'0 0.0
2014-Oct-31 19:09N 47°40' W 122°24'0 0.0
2014-Oct-31 18:33N 47°40' W 122°24'0 0.1
2014-Oct-31 18:29N 47°40' W 122°24'0 0.0
2014-Oct-31 17:04N 47°40' W 122°24'0 0.0
2014-Oct-31 16:33N 47°40' W 122°24'  

Dump ship's entire track history